Airfield :
LOGIN :

Register | Disclaimer

   EN    FR    IT 

 










Legend :    VFR   Marginal VFR   IFR   Intensive IFR   Very Intensive IFR
Visi :
Ceiling :
>= 8 km
>= 3000ft
5 to 8 km
1000 to 3000 ft
1500m to 5 km
500 to 1000 ft
800 to 1500m
200 to 500 ft
< 800m
< 200 ft
Symbols :   Thunderstorms  Fog  Heavy snow  Heavy precipitations  Wind > 20 kt
SIGMETs :     Misc.  Thunderstorms  Icing  Turbulence  Mountain Waves  Volcanic Ashes






- Airport Elevation : 82 ft
- IATA code : AAR


EKAH - Aarhus Tirstrup

CURRENT METAR :
  • 201450Z AUTO 17002KT 9999NDV NCD 12/10 Q1011

EXPIRED METARs :
  • 201420Z AUTO 20002KT 9999NDV FEW012/// 12/10 Q1011
  • 201350Z AUTO 19003KT 9999NDV BKN012/// 12/10 Q1011
  • 201320Z AUTO 19003KT 9999NDV BKN011/// 13/10 Q1011
  • 201250Z AUTO 22003KT 9999NDV BKN011/// 13/10 Q1011
  • 201220Z AUTO 22004KT 150V260 9999NDV FEW010/// 12/10 Q1010

TAF TAF EKAH
Valid from the 20 at 12:00 until the 21 at 12:00 UTC


201100Z 2012/2112 20007KT 9999 SCT010
TEMPO 2012/2015 BKN008
BECMG 2018/2020 4000 BR
TEMPO 2020/2022 0300 BCFG
BECMG 2022/2024 0100 FG BKN001
TEMPO 2100/2107 0800 SCT002
BECMG 2108/2110 2500 BR BKN004
BECMG 2110/2112 8000 NSW BKN015



MET'MAP, your aeronautical weather chart ! - Copyright ORBIFLY December 2007 - Disclaimer

ORBIFLY MET'MAP TEAM :

Programming & Development : Alexandra Zaïnal
Concept & Development : Baudouin d'Aumeries
Co-Development & Prog : Marc-Olivier Méhu
Technical & hardware support : Manuel Goepfert

Contact : metmap@orbifly.com




SOURCES & CREDITS :

   NOAA